createdAt,value
2023-04-09T00:01:39.739Z,12.02
2023-04-09T00:04:07.301Z,9.98
2023-04-09T00:06:34.710Z,9.98
2023-04-09T00:09:02.250Z,12.00
2023-04-09T00:11:29.686Z,11.15
2023-04-09T00:13:58.185Z,12.20
2023-04-09T00:16:25.833Z,11.73
2023-04-09T00:18:54.609Z,11.32
2023-04-09T00:21:22.426Z,11.10
2023-04-09T00:23:49.914Z,12.75
2023-04-09T00:26:17.338Z,12.07
2023-04-09T00:28:45.351Z,11.57
2023-04-09T00:31:13.317Z,11.00
2023-04-09T00:33:41.217Z,13.80
2023-04-09T00:36:08.887Z,10.35
2023-04-09T00:38:36.498Z,13.25
2023-04-09T00:41:03.998Z,12.98
2023-04-09T00:43:31.550Z,11.35
2023-04-09T00:46:00.818Z,10.32
2023-04-09T00:48:28.620Z,11.55
2023-04-09T00:50:56.975Z,11.35
2023-04-09T00:53:25.336Z,9.32
2023-04-09T00:55:54.524Z,11.20
2023-04-09T00:58:22.113Z,11.40
2023-04-09T01:00:49.695Z,10.30
2023-04-09T01:03:17.467Z,10.95
2023-04-09T01:06:06.131Z,9.48
2023-04-09T01:08:51.262Z,8.88
2023-04-09T01:11:37.888Z,10.23
2023-04-09T01:14:31.649Z,11.88
2023-04-09T01:17:09.938Z,9.98
2023-04-09T01:19:54.624Z,10.77
2023-04-09T01:22:45.399Z,12.93
2023-04-09T01:25:51.191Z,11.05
2023-04-09T01:28:31.414Z,11.23
2023-04-09T01:31:07.671Z,10.30
2023-04-09T01:33:35.925Z,13.23
2023-04-09T01:36:06.497Z,11.55
2023-04-09T01:38:36.392Z,11.70
2023-04-09T01:41:05.224Z,12.65
2023-04-09T01:43:34.466Z,11.32
2023-04-09T01:46:03.634Z,11.25
2023-04-09T01:48:32.815Z,9.93
2023-04-09T01:51:00.752Z,11.70
2023-04-09T01:53:28.469Z,9.90
2023-04-09T01:55:56.810Z,9.23
2023-04-09T01:58:26.113Z,9.65
2023-04-09T02:01:05.444Z,10.23
2023-04-09T02:03:51.407Z,10.20
2023-04-09T02:06:31.146Z,10.60
2023-04-09T02:09:01.500Z,10.00
2023-04-09T02:11:30.263Z,9.98
2023-04-09T02:13:58.492Z,11.32
2023-04-09T02:16:27.427Z,8.50
2023-04-09T02:18:56.926Z,8.52
2023-04-09T02:21:24.577Z,9.88
2023-04-09T02:23:52.445Z,11.25
2023-04-09T02:26:19.950Z,8.93
2023-04-09T02:28:47.426Z,9.88
2023-04-09T02:31:15.274Z,10.93
2023-04-09T02:33:43.639Z,10.50
2023-04-09T02:36:12.991Z,12.80
2023-04-09T02:38:42.434Z,9.75
2023-04-09T02:41:09.989Z,7.95
2023-04-09T02:43:37.642Z,6.15
2023-04-09T02:46:05.625Z,10.80
2023-04-09T02:48:35.000Z,11.68
2023-04-09T02:51:06.173Z,11.05
2023-04-09T02:53:33.736Z,12.32
2023-04-09T02:56:01.496Z,10.45
2023-04-09T02:58:29.026Z,11.90
2023-04-09T03:00:56.669Z,15.32
2023-04-09T03:03:24.339Z,11.38
2023-04-09T03:05:51.970Z,12.43
2023-04-09T03:08:19.460Z,10.38
2023-04-09T03:10:46.917Z,10.18
2023-04-09T03:13:14.468Z,10.63
2023-04-09T03:15:42.178Z,12.65
2023-04-09T03:18:09.711Z,11.32
2023-04-09T03:20:40.223Z,11.95
2023-04-09T03:23:11.355Z,10.02
2023-04-09T03:25:43.005Z,11.95
2023-04-09T03:30:48.063Z,12.52
2023-04-09T03:33:16.143Z,14.75
2023-04-09T03:35:53.116Z,14.73
2023-04-09T03:38:30.380Z,18.35
2023-04-09T03:40:59.921Z,15.63
2023-04-09T03:43:27.534Z,12.02
2023-04-09T03:45:55.081Z,15.93
2023-04-09T03:48:25.893Z,13.57
2023-04-09T03:50:53.969Z,11.98
2023-04-09T03:53:30.397Z,12.75
2023-04-09T03:56:03.266Z,13.65
2023-04-09T03:58:32.095Z,12.93
2023-04-09T04:01:00.319Z,13.00
2023-04-09T04:03:37.029Z,12.88
2023-04-09T04:06:24.975Z,12.25
2023-04-09T04:09:11.294Z,13.65
2023-04-09T04:11:47.262Z,14.30
2023-04-09T04:14:15.868Z,17.83
2023-04-09T04:16:46.956Z,16.02
2023-04-09T04:19:18.798Z,18.80
2023-04-09T04:21:49.214Z,19.25
2023-04-09T04:24:18.203Z,21.75
2023-04-09T04:26:46.114Z,17.55
2023-04-09T04:29:17.981Z,29.42
2023-04-09T04:31:54.172Z,16.55
2023-04-09T04:34:24.280Z,15.98
2023-04-09T04:36:59.579Z,12.75
2023-04-09T04:42:03.454Z,14.18
2023-04-09T04:44:31.182Z,14.27
2023-04-09T04:47:10.847Z,17.27
2023-04-09T04:49:38.396Z,20.75
2023-04-09T04:52:07.852Z,17.17
2023-04-09T04:54:36.590Z,16.52
2023-04-09T04:57:04.228Z,17.73
2023-04-09T04:59:41.987Z,14.20
2023-04-09T05:02:11.975Z,21.10
2023-04-09T05:04:59.804Z,15.75
2023-04-09T05:07:34.780Z,22.25
2023-04-09T05:10:02.620Z,17.40
2023-04-09T05:12:36.452Z,17.85
2023-04-09T05:15:05.802Z,12.13
2023-04-09T05:17:33.393Z,26.45
2023-04-09T05:20:01.362Z,23.02
2023-04-09T05:22:40.495Z,13.32
2023-04-09T05:25:08.740Z,14.43
2023-04-09T05:27:40.190Z,11.05
2023-04-09T05:30:08.674Z,11.13
2023-04-09T05:32:36.559Z,9.55
2023-04-09T05:35:05.593Z,9.40
2023-04-09T05:37:39.202Z,19.33
2023-04-09T05:40:07.939Z,8.85
2023-04-09T05:42:36.049Z,14.85
2023-04-09T05:45:09.133Z,14.85
2023-04-09T05:47:38.435Z,8.48
2023-04-09T05:50:14.451Z,9.32
2023-04-09T05:52:42.216Z,10.00
2023-04-09T05:55:12.618Z,13.02
2023-04-09T05:57:47.457Z,11.18
2023-04-09T06:00:15.721Z,15.50
2023-04-09T06:02:48.136Z,11.50
2023-04-09T06:05:16.067Z,23.40
2023-04-09T06:07:43.651Z,9.45
2023-04-09T06:10:11.302Z,9.90
2023-04-09T06:12:39.834Z,9.15
2023-04-09T06:15:07.697Z,13.18
2023-04-09T06:17:35.611Z,10.20
2023-04-09T06:20:03.784Z,11.23
2023-04-09T06:22:31.278Z,8.88
2023-04-09T06:24:58.785Z,8.68
2023-04-09T06:27:26.607Z,8.85
2023-04-09T06:29:54.118Z,8.38
2023-04-09T06:32:21.792Z,9.30
2023-04-09T06:34:49.350Z,8.27
2023-04-09T06:37:16.861Z,9.43
2023-04-09T06:39:50.637Z,7.93
2023-04-09T06:42:26.803Z,10.48
2023-04-09T06:45:08.569Z,8.63
2023-04-09T06:47:36.416Z,11.45
2023-04-09T06:50:04.409Z,14.05
2023-04-09T06:52:32.031Z,15.82
2023-04-09T06:54:59.485Z,12.75
2023-04-09T06:57:27.271Z,10.23
2023-04-09T06:59:54.734Z,8.93
2023-04-09T07:02:22.512Z,8.95
2023-04-09T07:04:50.675Z,11.45
2023-04-09T07:07:18.618Z,9.05
2023-04-09T07:09:46.338Z,9.63
2023-04-09T07:12:13.928Z,10.75
2023-04-09T07:14:41.567Z,11.80
2023-04-09T07:17:09.042Z,10.68
2023-04-09T07:19:36.479Z,10.52
2023-04-09T07:22:03.900Z,9.20
2023-04-09T07:24:31.407Z,9.43
2023-04-09T07:27:03.420Z,9.85
2023-04-09T07:29:31.087Z,9.70
2023-04-09T07:32:01.092Z,9.95
2023-04-09T07:34:28.969Z,10.77
2023-04-09T07:36:56.527Z,9.43
2023-04-09T07:39:24.060Z,9.05
2023-04-09T07:41:51.503Z,8.75
2023-04-09T07:44:19.018Z,7.72
2023-04-09T07:46:46.543Z,7.75
2023-04-09T07:49:14.444Z,7.85
2023-04-09T07:51:42.013Z,7.95
2023-04-09T07:54:09.505Z,8.50
2023-04-09T07:56:37.049Z,11.02
2023-04-09T07:59:04.779Z,8.65
2023-04-09T08:01:32.306Z,8.18
2023-04-09T08:04:00.054Z,8.27
2023-04-09T08:06:27.663Z,8.07
2023-04-09T08:08:55.313Z,8.27
2023-04-09T08:11:25.306Z,8.73
2023-04-09T08:13:53.077Z,8.50
2023-04-09T08:16:24.440Z,6.97
2023-04-09T08:18:52.168Z,7.70
2023-04-09T08:21:20.042Z,7.72
2023-04-09T08:23:47.638Z,6.63
2023-04-09T08:26:15.293Z,8.77
2023-04-09T08:28:42.893Z,8.45
2023-04-09T08:31:10.386Z,9.10
2023-04-09T08:33:37.968Z,9.57
2023-04-09T08:36:11.344Z,10.63
2023-04-09T08:38:38.935Z,9.18
2023-04-09T08:41:06.560Z,9.75
2023-04-09T08:43:53.117Z,8.88
2023-04-09T08:46:23.768Z,8.77
2023-04-09T08:48:52.565Z,9.77
2023-04-09T08:51:22.569Z,8.38
2023-04-09T08:53:57.000Z,9.60
2023-04-09T08:56:26.187Z,5.85
2023-04-09T08:58:55.298Z,6.15
2023-04-09T09:01:24.124Z,7.95
2023-04-09T09:04:01.528Z,9.02
2023-04-09T09:06:32.902Z,8.02
2023-04-09T09:09:17.393Z,8.82
2023-04-09T09:11:51.021Z,10.15
2023-04-09T09:14:19.638Z,13.30
2023-04-09T09:16:56.643Z,13.85
2023-04-09T09:19:26.964Z,9.88
2023-04-09T09:21:58.076Z,14.35
2023-04-09T09:24:25.817Z,11.75
2023-04-09T09:26:58.789Z,14.20
2023-04-09T09:29:28.186Z,11.88
2023-04-09T09:31:56.354Z,11.30
2023-04-09T09:34:24.992Z,10.55
2023-04-09T09:36:53.391Z,11.02
2023-04-09T09:39:22.245Z,10.52
2023-04-09T09:42:07.633Z,12.45
2023-04-09T09:44:35.241Z,10.65
2023-04-09T09:47:04.785Z,10.63
2023-04-09T09:49:32.244Z,10.55
2023-04-09T09:52:02.818Z,10.55
2023-04-09T09:54:38.961Z,10.43
2023-04-09T09:57:09.696Z,11.70
2023-04-09T10:00:00.885Z,10.30
2023-04-09T10:02:32.688Z,10.55
2023-04-09T10:05:01.621Z,12.07
2023-04-09T10:07:30.051Z,11.93
2023-04-09T10:09:58.754Z,10.02
2023-04-09T10:12:27.682Z,9.88
2023-04-09T10:14:56.647Z,9.48
2023-04-09T10:17:24.172Z,12.00
2023-04-09T10:20:07.639Z,12.52
2023-04-09T10:22:36.384Z,11.73
2023-04-09T10:25:06.437Z,10.77
2023-04-09T10:27:34.132Z,10.93
2023-04-09T10:30:01.761Z,11.82
2023-04-09T10:32:36.169Z,11.60
2023-04-09T10:35:04.621Z,9.38
2023-04-09T10:37:32.256Z,10.45
2023-04-09T10:39:59.784Z,9.80
2023-04-09T10:42:32.798Z,12.98
2023-04-09T10:45:14.889Z,11.65
2023-04-09T10:47:43.980Z,13.10
2023-04-09T10:50:16.139Z,10.95
2023-04-09T10:52:44.399Z,11.73
2023-04-09T10:55:41.811Z,11.05
2023-04-09T10:58:13.190Z,10.68
2023-04-09T11:00:43.513Z,11.18
2023-04-09T11:03:30.434Z,12.38
2023-04-09T11:06:10.436Z,12.52
2023-04-09T11:08:38.744Z,12.32
2023-04-09T11:11:06.414Z,12.63
2023-04-09T11:13:34.513Z,11.07
2023-04-09T11:16:06.775Z,10.63
2023-04-09T11:18:35.533Z,11.18
2023-04-09T11:21:04.476Z,11.55
2023-04-09T11:23:33.038Z,12.88
2023-04-09T11:26:01.835Z,9.63
2023-04-09T11:28:29.417Z,12.95
2023-04-09T11:30:56.962Z,11.63
2023-04-09T11:33:33.226Z,10.60
2023-04-09T11:36:01.828Z,12.85
2023-04-09T11:38:31.521Z,11.73
2023-04-09T11:40:59.130Z,12.38
2023-04-09T11:43:26.574Z,11.40
2023-04-09T11:45:55.834Z,11.65
2023-04-09T11:48:24.925Z,11.60
2023-04-09T11:50:52.746Z,11.48
2023-04-09T11:53:21.404Z,15.13
2023-04-09T11:55:53.605Z,14.00
2023-04-09T11:58:27.937Z,10.85
2023-04-09T12:00:57.946Z,11.70
2023-04-09T12:03:33.254Z,13.68
2023-04-09T12:06:03.104Z,14.57
2023-04-09T12:08:31.501Z,13.18
2023-04-09T12:11:09.486Z,12.32
2023-04-09T12:13:37.060Z,10.27
2023-04-09T12:16:05.741Z,13.00
2023-04-09T12:18:37.903Z,16.25
2023-04-09T12:21:06.019Z,11.90
2023-04-09T12:23:33.557Z,12.02
2023-04-09T12:26:01.984Z,9.73
2023-04-09T12:28:29.836Z,13.40
2023-04-09T12:30:59.375Z,10.20
2023-04-09T12:33:27.286Z,10.25
2023-04-09T12:35:56.037Z,10.23
2023-04-09T12:38:23.574Z,13.57
2023-04-09T12:40:51.207Z,11.43
2023-04-09T12:43:18.803Z,12.73
2023-04-09T12:45:46.846Z,11.85
2023-04-09T12:48:14.314Z,12.02
2023-04-09T12:50:41.839Z,12.77
2023-04-09T12:53:09.366Z,11.77
2023-04-09T12:55:36.840Z,13.23
2023-04-09T12:58:04.958Z,12.90
2023-04-09T13:00:33.426Z,12.65
2023-04-09T13:03:04.365Z,11.43
2023-04-09T13:05:35.379Z,14.45
2023-04-09T13:08:03.477Z,12.88
2023-04-09T13:10:31.777Z,13.05
2023-04-09T13:12:59.409Z,10.20
2023-04-09T13:15:27.385Z,12.40
2023-04-09T13:17:55.962Z,10.65
2023-04-09T13:20:23.579Z,12.32
2023-04-09T13:22:52.364Z,12.82
2023-04-09T13:25:20.453Z,11.07
2023-04-09T13:27:48.085Z,9.30
2023-04-09T13:30:16.001Z,9.52
2023-04-09T13:32:43.773Z,9.25
2023-04-09T13:35:11.447Z,7.97
2023-04-09T13:37:39.051Z,6.70
2023-04-09T13:40:09.053Z,7.47
2023-04-09T13:42:37.560Z,9.23
2023-04-09T13:45:06.023Z,10.40
2023-04-09T13:47:33.742Z,10.40
2023-04-09T13:50:01.458Z,7.05
2023-04-09T13:52:29.762Z,9.05
2023-04-09T13:54:57.470Z,7.75
2023-04-09T13:57:25.067Z,9.73
2023-04-09T13:59:52.642Z,8.55
2023-04-09T14:02:20.690Z,10.07
2023-04-09T14:04:48.663Z,10.48
2023-04-09T14:07:16.563Z,9.57
2023-04-09T14:09:44.239Z,9.65
2023-04-09T14:12:11.698Z,7.32
2023-04-09T14:14:39.289Z,6.75
2023-04-09T14:17:06.884Z,7.38
2023-04-09T14:19:34.379Z,8.00
2023-04-09T14:22:01.989Z,7.07
2023-04-09T14:24:29.589Z,7.60
2023-04-09T14:26:57.112Z,4.57
2023-04-09T14:29:24.737Z,5.03
2023-04-09T14:31:53.504Z,5.82
2023-04-09T14:34:21.908Z,6.05
2023-04-09T14:36:49.698Z,7.45
2023-04-09T14:39:17.836Z,5.40
2023-04-09T14:41:45.298Z,5.13
2023-04-09T14:44:12.848Z,5.63
2023-04-09T14:46:40.457Z,7.15
2023-04-09T14:49:08.047Z,4.57
2023-04-09T14:51:35.558Z,5.13
2023-04-09T14:54:03.348Z,3.72
2023-04-09T14:56:30.975Z,3.80
2023-04-09T14:58:58.664Z,4.60
2023-04-09T15:01:27.480Z,3.63
2023-04-09T15:03:55.666Z,3.70
2023-04-09T15:06:23.338Z,4.45
2023-04-09T15:08:51.157Z,4.70
2023-04-09T15:11:20.028Z,4.70
2023-04-09T15:13:47.601Z,4.88
2023-04-09T15:16:26.007Z,5.70
2023-04-09T15:18:56.201Z,5.32
2023-04-09T15:21:24.000Z,5.28
2023-04-09T15:23:51.950Z,4.60
2023-04-09T15:26:19.573Z,5.03
2023-04-09T15:28:47.135Z,5.28
2023-04-09T15:31:14.607Z,4.43
2023-04-09T15:33:43.865Z,5.07
2023-04-09T15:36:11.978Z,4.93
2023-04-09T15:38:39.680Z,5.30
2023-04-09T15:41:07.115Z,4.95
2023-04-09T15:43:34.570Z,5.55
2023-04-09T15:46:09.190Z,5.70
2023-04-09T15:48:37.129Z,5.45
2023-04-09T15:51:04.945Z,5.95
2023-04-09T15:53:32.414Z,5.57
2023-04-09T15:55:59.874Z,4.70
2023-04-09T15:58:27.317Z,5.78
2023-04-09T16:00:54.838Z,6.53
2023-04-09T16:03:22.302Z,5.78
2023-04-09T16:05:49.991Z,6.50
2023-04-09T16:08:17.515Z,6.40
2023-04-09T16:10:45.356Z,6.82
2023-04-09T16:13:12.966Z,6.00
2023-04-09T16:15:40.516Z,6.47
2023-04-09T16:18:08.327Z,6.97
2023-04-09T16:20:36.017Z,4.72
2023-04-09T16:23:03.458Z,5.07
2023-04-09T16:25:31.977Z,4.72
2023-04-09T16:27:59.487Z,5.93
2023-04-09T16:30:27.054Z,6.78
2023-04-09T16:32:54.789Z,7.18
2023-04-09T16:35:22.467Z,6.20
2023-04-09T16:37:51.822Z,6.75
2023-04-09T16:40:24.204Z,6.43
2023-04-09T16:42:51.746Z,7.07
2023-04-09T16:45:19.492Z,6.00
2023-04-09T16:47:50.100Z,5.53
2023-04-09T16:50:20.547Z,7.10
2023-04-09T16:52:48.528Z,5.50
2023-04-09T16:55:16.647Z,7.43
2023-04-09T16:57:44.244Z,6.22
2023-04-09T17:00:12.901Z,6.65
2023-04-09T17:02:40.582Z,6.80
2023-04-09T17:05:09.188Z,5.95
2023-04-09T17:07:37.081Z,5.45
2023-04-09T17:10:05.420Z,5.57
2023-04-09T17:12:33.386Z,5.90
2023-04-09T17:15:01.390Z,6.40
2023-04-09T17:17:29.004Z,5.60
2023-04-09T17:19:58.436Z,6.60
2023-04-09T17:22:26.017Z,6.60
2023-04-09T17:24:53.812Z,5.40
2023-04-09T17:27:21.790Z,7.05
2023-04-09T17:29:49.379Z,7.32
2023-04-09T17:32:16.922Z,6.25
2023-04-09T17:34:48.342Z,6.60
2023-04-09T17:39:43.163Z,7.43
2023-04-09T17:42:12.118Z,7.88
2023-04-09T17:44:39.692Z,7.30
2023-04-09T17:47:07.532Z,7.65
2023-04-09T17:49:35.073Z,8.65
2023-04-09T17:52:02.594Z,7.90
2023-04-09T17:54:36.905Z,8.73
2023-04-09T17:57:04.774Z,7.82
2023-04-09T17:59:33.136Z,5.78
2023-04-09T18:02:01.331Z,5.50
2023-04-09T18:04:29.089Z,6.82
2023-04-09T18:06:57.025Z,6.15
2023-04-09T18:09:24.488Z,6.75
2023-04-09T18:11:56.503Z,8.38
2023-04-09T18:14:24.129Z,8.18
2023-04-09T18:16:51.828Z,7.50
2023-04-09T18:19:19.435Z,8.02
2023-04-09T18:21:47.374Z,7.88
2023-04-09T18:24:15.100Z,9.68
2023-04-09T18:26:42.545Z,7.63
2023-04-09T18:29:10.026Z,8.13
2023-04-09T18:31:37.515Z,8.13
2023-04-09T18:34:05.171Z,7.97
2023-04-09T18:36:32.656Z,8.85
2023-04-09T18:39:00.115Z,9.82
2023-04-09T18:41:27.592Z,7.90
2023-04-09T18:43:55.633Z,8.65
2023-04-09T18:46:23.994Z,10.35
2023-04-09T18:48:51.747Z,9.88
2023-04-09T18:51:21.025Z,8.68
2023-04-09T18:53:52.829Z,9.20
2023-04-09T18:56:21.125Z,10.43
2023-04-09T18:58:48.861Z,9.90
2023-04-09T19:01:17.484Z,9.27
2023-04-09T19:03:45.786Z,8.57
2023-04-09T19:06:18.830Z,8.82
2023-04-09T19:08:47.089Z,9.35
2023-04-09T19:11:14.958Z,10.82
2023-04-09T19:13:42.484Z,7.82
2023-04-09T19:16:10.018Z,8.75
2023-04-09T19:18:37.783Z,9.13
2023-04-09T19:21:08.668Z,8.55
2023-04-09T19:23:36.278Z,9.57
2023-04-09T19:26:05.459Z,9.63
2023-04-09T19:28:32.967Z,8.23
2023-04-09T19:31:02.820Z,8.52
2023-04-09T19:33:31.740Z,9.32
2023-04-09T19:35:59.322Z,8.77
2023-04-09T19:38:27.037Z,10.73
2023-04-09T19:40:54.591Z,9.40
2023-04-09T19:43:22.170Z,10.52
2023-04-09T19:45:49.814Z,8.95
2023-04-09T19:48:17.282Z,10.15
2023-04-09T19:50:45.271Z,8.98
2023-04-09T19:53:12.797Z,8.25
2023-04-09T19:55:40.351Z,8.18
2023-04-09T19:58:07.869Z,11.20
2023-04-09T20:00:35.429Z,10.30
2023-04-09T20:03:03.425Z,8.07
2023-04-09T20:05:31.042Z,10.25
2023-04-09T20:07:58.581Z,11.52
2023-04-09T20:10:26.108Z,12.18
2023-04-09T20:12:53.877Z,12.38
2023-04-09T20:15:21.374Z,11.40
2023-04-09T20:17:49.729Z,10.25
2023-04-09T20:20:19.789Z,9.73
2023-04-09T20:22:55.712Z,10.77
2023-04-09T20:25:24.954Z,11.40
2023-04-09T20:27:54.073Z,12.15
2023-04-09T20:30:22.512Z,10.35
2023-04-09T20:32:50.058Z,9.57
2023-04-09T20:35:17.605Z,10.75
2023-04-09T20:37:45.262Z,9.75
2023-04-09T20:40:12.918Z,11.52
2023-04-09T20:42:44.010Z,12.13
2023-04-09T20:45:11.867Z,10.98
2023-04-09T20:47:39.613Z,10.70
2023-04-09T20:50:07.731Z,11.70
2023-04-09T20:52:35.392Z,13.40
2023-04-09T20:55:03.127Z,12.57
2023-04-09T20:57:30.608Z,12.80
2023-04-09T20:59:58.169Z,10.73
2023-04-09T21:02:25.971Z,11.98
2023-04-09T21:04:53.641Z,9.57
2023-04-09T21:07:21.379Z,10.40
2023-04-09T21:09:49.326Z,10.52
2023-04-09T21:12:16.931Z,11.63
2023-04-09T21:14:44.774Z,13.70
2023-04-09T21:17:12.388Z,18.58
2023-04-09T21:19:40.308Z,17.42
2023-04-09T21:22:07.843Z,14.80
2023-04-09T21:24:35.529Z,13.07
2023-04-09T21:27:06.793Z,14.40
2023-04-09T21:29:37.247Z,12.23
2023-04-09T21:32:04.980Z,12.35
2023-04-09T21:34:32.801Z,13.02
2023-04-09T21:37:02.782Z,12.20
2023-04-09T21:39:30.401Z,11.75
2023-04-09T21:41:58.141Z,12.25
2023-04-09T21:44:25.731Z,11.75
2023-04-09T21:46:53.342Z,9.52
2023-04-09T21:49:20.868Z,12.38
2023-04-09T21:51:48.319Z,10.25
2023-04-09T21:54:15.881Z,10.45
2023-04-09T21:56:43.460Z,11.65
2023-04-09T21:59:11.052Z,10.15
2023-04-09T22:01:38.683Z,11.18
2023-04-09T22:04:06.409Z,10.88
2023-04-09T22:06:34.065Z,10.80
2023-04-09T22:09:02.168Z,10.23
2023-04-09T22:11:29.947Z,12.43
2023-04-09T22:13:57.733Z,15.07
2023-04-09T22:16:26.132Z,10.77
2023-04-09T22:18:54.836Z,10.25
2023-04-09T22:21:22.782Z,12.52
2023-04-09T22:23:50.355Z,12.07
2023-04-09T22:26:18.029Z,8.68
2023-04-09T22:28:45.508Z,12.07
2023-04-09T22:31:13.092Z,12.02
2023-04-09T22:33:40.939Z,11.40
2023-04-09T22:36:08.587Z,10.38
2023-04-09T22:38:36.250Z,13.77
2023-04-09T22:41:03.875Z,13.40
2023-04-09T22:43:31.667Z,11.75
2023-04-09T22:45:59.314Z,12.68
2023-04-09T22:48:27.185Z,14.38
2023-04-09T22:50:54.974Z,11.30
2023-04-09T22:53:22.423Z,10.10
2023-04-09T22:55:51.634Z,13.05
2023-04-09T22:58:19.354Z,14.85
2023-04-09T23:00:47.680Z,13.13
2023-04-09T23:03:15.906Z,11.88
2023-04-09T23:05:43.876Z,11.20
2023-04-09T23:08:12.055Z,12.77
2023-04-09T23:10:39.585Z,14.30
2023-04-09T23:13:07.174Z,13.45
2023-04-09T23:15:34.770Z,15.45
2023-04-09T23:18:02.336Z,10.07
2023-04-09T23:20:29.857Z,11.63
2023-04-09T23:22:57.414Z,13.18
2023-04-09T23:25:24.942Z,14.00
2023-04-09T23:27:52.497Z,12.60
2023-04-09T23:30:21.616Z,13.32
2023-04-09T23:32:49.215Z,13.52
2023-04-09T23:35:16.874Z,13.00
2023-04-09T23:37:44.447Z,14.93
2023-04-09T23:40:12.337Z,13.90
2023-04-09T23:42:39.813Z,14.48
2023-04-09T23:45:07.877Z,14.73
2023-04-09T23:47:36.429Z,13.20
2023-04-09T23:50:05.798Z,12.00
2023-04-09T23:52:37.951Z,12.80
2023-04-09T23:55:10.738Z,12.80
2023-04-09T23:57:39.547Z,12.45
